Anda, China
Current Conditions -  °F | °C
As of 5:00 AM on Friday 28 Nov 2014 (Local Time) from ZYHB Reporting Station
Clear Clear  
Wind Chill:   Ceiling: Unl
Heat Index: 16°   Visibility: 6mi
Dew Point: -4°   Wind: 7mph
Humidity: 41%   Direction: 80°E
Pressure: 30.3"   Gusts: NA
Location:  46.4°N, 125.32°E
Report Text: ZYHB 272100Z 08003MPS CAVOK M09/M20 Q1026 NOSIG
Loading
Personal Weather Stations






























Interactive Weather Map New forecast layout! Learn more

10-Day Weather Forecast

Advertisements
Track Severe Weather on mobile